createdAt,value
2024-01-27T00:01:59.199Z,73.87
2024-01-27T00:07:01.048Z,73.73
2024-01-27T00:12:02.914Z,73.46
2024-01-27T00:17:04.584Z,73.46
2024-01-27T00:22:06.620Z,73.54
2024-01-27T00:27:08.344Z,73.95
2024-01-27T00:32:10.027Z,74.29
2024-01-27T00:37:11.640Z,73.66
2024-01-27T00:42:13.557Z,74.69
2024-01-27T00:47:15.255Z,74.22
2024-01-27T00:52:16.843Z,74.89
2024-01-27T00:57:18.504Z,74.57
2024-01-27T01:02:20.224Z,73.24
2024-01-27T01:07:21.851Z,74.07
2024-01-27T01:12:23.662Z,73.75
2024-01-27T01:17:25.390Z,73.45
2024-01-27T01:22:27.000Z,74.56
2024-01-27T01:27:28.751Z,74.15
2024-01-27T01:32:30.383Z,74.11
2024-01-27T01:37:32.357Z,74.71
2024-01-27T01:42:34.069Z,74.75
2024-01-27T01:47:35.824Z,75.51
2024-01-27T01:52:38.458Z,74.30
2024-01-27T01:57:40.150Z,73.63
2024-01-27T02:02:44.678Z,72.64
2024-01-27T02:07:46.267Z,72.38
2024-01-27T02:12:47.946Z,73.39
2024-01-27T02:17:49.676Z,73.06
2024-01-27T02:22:51.329Z,72.63
2024-01-27T02:27:53.319Z,72.34
2024-01-27T02:32:58.577Z,72.50
2024-01-27T02:38:00.241Z,72.54
2024-01-27T02:43:02.160Z,73.37
2024-01-27T02:48:04.430Z,72.11
2024-01-27T02:53:06.149Z,71.72
2024-01-27T02:58:07.814Z,72.67
2024-01-27T03:03:09.556Z,71.65
2024-01-27T03:08:11.415Z,72.52
2024-01-27T03:13:13.062Z,72.47
2024-01-27T03:18:14.824Z,71.18
2024-01-27T03:23:16.473Z,71.10
2024-01-27T03:28:18.092Z,71.82
2024-01-27T03:33:19.855Z,71.44
2024-01-27T03:38:21.533Z,70.67
2024-01-27T03:43:23.146Z,71.19
2024-01-27T03:48:25.327Z,71.12
2024-01-27T03:53:26.981Z,69.88
2024-01-27T03:58:28.590Z,69.90
2024-01-27T04:03:30.257Z,68.58
2024-01-27T04:08:31.975Z,68.39
2024-01-27T04:13:33.589Z,68.24
2024-01-27T04:18:35.344Z,67.96
2024-01-27T04:23:37.131Z,67.57
2024-01-27T04:28:38.795Z,68.40
2024-01-27T04:33:40.712Z,67.58
2024-01-27T04:38:44.670Z,68.05
2024-01-27T04:43:46.275Z,69.02
2024-01-27T04:48:48.388Z,68.69
2024-01-27T04:53:51.673Z,69.22
2024-01-27T04:58:53.438Z,69.62
2024-01-27T05:03:55.205Z,70.00
2024-01-27T05:08:57.079Z,70.71
2024-01-27T05:13:59.969Z,69.50
2024-01-27T05:19:01.713Z,69.02
2024-01-27T05:24:03.556Z,69.75
2024-01-27T05:29:05.286Z,69.98
2024-01-27T05:34:07.067Z,70.38
2024-01-27T05:39:09.492Z,70.55
2024-01-27T05:44:11.117Z,70.34
2024-01-27T05:49:12.930Z,70.77
2024-01-27T05:54:17.743Z,70.43
2024-01-27T05:59:19.663Z,71.20
2024-01-27T06:04:21.302Z,70.37
2024-01-27T06:09:23.110Z,70.83
2024-01-27T06:14:24.921Z,70.71
2024-01-27T06:19:26.724Z,71.49
2024-01-27T06:24:28.481Z,71.08
2024-01-27T06:29:30.270Z,70.67
2024-01-27T06:34:33.414Z,70.52
2024-01-27T06:39:35.230Z,71.27
2024-01-27T06:44:36.869Z,71.38
2024-01-27T06:49:38.759Z,71.00
2024-01-27T06:54:44.999Z,70.57
2024-01-27T06:59:53.451Z,70.13
2024-01-27T07:04:55.843Z,71.06
2024-01-27T07:09:58.251Z,70.79
2024-01-27T07:15:01.021Z,72.06
2024-01-27T07:20:03.003Z,71.01
2024-01-27T07:25:05.134Z,71.01
2024-01-27T07:30:09.738Z,71.19
2024-01-27T07:35:11.570Z,71.75
2024-01-27T07:40:13.536Z,72.08
2024-01-27T07:45:16.079Z,72.21
2024-01-27T07:50:17.896Z,71.68
2024-01-27T07:55:19.472Z,71.58
2024-01-27T08:00:21.344Z,72.13
2024-01-27T08:05:23.025Z,72.00
2024-01-27T08:10:24.818Z,71.99
2024-01-27T08:15:26.508Z,72.08
2024-01-27T08:20:28.137Z,71.96
2024-01-27T08:25:29.812Z,72.55
2024-01-27T08:30:31.533Z,72.17
2024-01-27T08:35:33.302Z,71.89
2024-01-27T08:40:35.292Z,72.42
2024-01-27T08:45:38.948Z,71.67
2024-01-27T08:50:40.680Z,72.01
2024-01-27T08:55:42.550Z,72.23
2024-01-27T09:00:44.278Z,72.71
2024-01-27T09:05:46.376Z,72.58
2024-01-27T09:10:48.047Z,72.16
2024-01-27T09:15:49.840Z,72.40
2024-01-27T09:20:51.586Z,72.12
2024-01-27T09:25:53.260Z,72.21
2024-01-27T09:30:55.119Z,72.11
2024-01-27T09:35:56.872Z,72.22
2024-01-27T09:40:58.540Z,71.80
2024-01-27T09:46:00.593Z,71.10
2024-01-27T09:51:03.682Z,71.45
2024-01-27T09:56:05.672Z,71.90
2024-01-27T10:01:08.210Z,71.73
2024-01-27T10:06:10.964Z,71.78
2024-01-27T10:11:15.174Z,71.93
2024-01-27T10:16:16.838Z,72.25
2024-01-27T10:21:19.677Z,71.62
2024-01-27T10:26:21.355Z,71.67
2024-01-27T10:31:29.981Z,72.23
2024-01-27T10:36:42.264Z,71.88
2024-01-27T10:41:47.422Z,73.11
2024-01-27T10:46:50.315Z,71.22
2024-01-27T10:51:59.729Z,71.56
2024-01-27T10:57:03.112Z,71.35
2024-01-27T11:02:05.716Z,71.11
2024-01-27T11:07:08.326Z,71.69
2024-01-27T11:12:10.381Z,71.38
2024-01-27T11:17:12.174Z,71.43
2024-01-27T11:22:30.065Z,71.10
2024-01-27T11:27:31.789Z,71.25
2024-01-27T11:32:34.017Z,70.93
2024-01-27T11:37:36.413Z,71.48
2024-01-27T11:42:38.127Z,71.41
2024-01-27T11:47:39.852Z,72.34
2024-01-27T11:52:41.556Z,71.76
2024-01-27T11:57:43.479Z,72.44
2024-01-27T12:02:45.192Z,73.53
2024-01-27T12:07:46.939Z,72.25
2024-01-27T12:12:48.587Z,72.16
2024-01-27T12:17:52.705Z,71.38
2024-01-27T12:23:07.385Z,71.24
2024-01-27T12:28:09.907Z,70.90
2024-01-27T12:33:13.427Z,70.44
2024-01-27T12:38:15.156Z,69.86
2024-01-27T12:43:16.851Z,69.73
2024-01-27T12:48:18.523Z,68.78
2024-01-27T12:53:20.286Z,67.90
2024-01-27T12:58:21.940Z,67.65
2024-01-27T13:03:23.681Z,67.93
2024-01-27T13:08:26.088Z,68.23
2024-01-27T13:13:27.888Z,67.20
2024-01-27T13:18:29.711Z,67.86
2024-01-27T13:23:31.533Z,67.13
2024-01-27T13:28:33.360Z,67.27
2024-01-27T13:33:36.588Z,67.49
2024-01-27T13:38:38.850Z,67.10
2024-01-27T13:43:40.769Z,67.90
2024-01-27T13:48:43.259Z,67.68
2024-01-27T13:53:47.652Z,67.60
2024-01-27T13:58:50.040Z,67.21
2024-01-27T14:03:52.133Z,67.65
2024-01-27T14:08:53.925Z,67.20
2024-01-27T14:13:56.837Z,67.69
2024-01-27T14:18:58.665Z,69.02
2024-01-27T14:24:07.497Z,70.91
2024-01-27T14:29:09.157Z,68.61
2024-01-27T14:34:11.168Z,70.41
2024-01-27T14:39:13.204Z,71.59
2024-01-27T14:44:15.037Z,70.85
2024-01-27T14:49:17.292Z,69.30
2024-01-27T14:54:21.199Z,70.36
2024-01-27T14:59:23.129Z,75.89
2024-01-27T15:04:27.861Z,72.57
2024-01-27T15:09:29.596Z,76.70
2024-01-27T15:14:32.956Z,74.84
2024-01-27T15:19:40.578Z,71.56
2024-01-27T15:24:43.185Z,73.21
2024-01-27T15:29:44.940Z,73.14
2024-01-27T15:34:46.693Z,72.71
2024-01-27T15:39:48.548Z,72.24
2024-01-27T15:44:50.203Z,75.77
2024-01-27T15:49:57.978Z,75.45
2024-01-27T15:55:00.198Z,75.57
2024-01-27T16:00:01.977Z,75.03
2024-01-27T16:05:06.682Z,76.71
2024-01-27T16:10:08.635Z,79.82
2024-01-27T16:15:10.858Z,80.27
2024-01-27T16:20:12.764Z,80.20
2024-01-27T16:25:15.120Z,78.83
2024-01-27T16:30:17.384Z,79.24
2024-01-27T16:35:20.217Z,76.07
2024-01-27T16:40:22.513Z,75.70
2024-01-27T16:45:24.223Z,76.02
2024-01-27T16:50:25.895Z,76.60
2024-01-27T16:55:27.621Z,75.42
2024-01-27T17:00:29.336Z,73.86
2024-01-27T17:05:30.965Z,75.19
2024-01-27T17:10:32.766Z,77.11
2024-01-27T17:15:35.769Z,77.47
2024-01-27T17:20:37.521Z,77.83
2024-01-27T17:25:39.331Z,80.63
2024-01-27T17:30:41.474Z,80.95
2024-01-27T17:35:43.232Z,84.71
2024-01-27T17:40:44.941Z,78.69
2024-01-27T17:45:46.674Z,86.47
2024-01-27T17:50:48.351Z,84.54
2024-01-27T17:55:50.807Z,83.56
2024-01-27T18:00:52.799Z,86.97
2024-01-27T18:05:54.778Z,83.23
2024-01-27T18:10:56.409Z,88.18
2024-01-27T18:15:58.963Z,85.07
2024-01-27T18:21:00.721Z,81.58
2024-01-27T18:26:02.394Z,84.46
2024-01-27T18:31:04.364Z,86.00
2024-01-27T18:36:06.201Z,86.92
2024-01-27T18:41:07.879Z,86.75
2024-01-27T18:46:09.595Z,81.45
2024-01-27T18:51:11.241Z,81.58
2024-01-27T18:56:14.347Z,80.09
2024-01-27T19:01:15.995Z,83.54
2024-01-27T19:06:19.604Z,80.51
2024-01-27T19:11:22.162Z,79.26
2024-01-27T19:16:23.983Z,80.07
2024-01-27T19:21:25.641Z,84.37
2024-01-27T19:26:27.278Z,84.60
2024-01-27T19:31:28.999Z,83.71
2024-01-27T19:36:30.681Z,85.34
2024-01-27T19:41:32.488Z,82.10
2024-01-27T19:46:34.145Z,82.68
2024-01-27T19:51:41.762Z,81.99
2024-01-27T19:56:43.404Z,83.20
2024-01-27T20:01:45.126Z,82.93
2024-01-27T20:06:48.678Z,83.40
2024-01-27T20:11:50.658Z,87.11
2024-01-27T20:16:52.283Z,81.85
2024-01-27T20:21:53.918Z,81.22
2024-01-27T20:26:55.520Z,80.30
2024-01-27T20:31:57.210Z,81.37
2024-01-27T20:36:58.877Z,81.50
2024-01-27T20:42:00.687Z,83.90
2024-01-27T20:47:02.361Z,87.61
2024-01-27T20:52:04.868Z,83.83
2024-01-27T20:57:06.562Z,83.77
2024-01-27T21:02:08.236Z,86.50
2024-01-27T21:07:10.450Z,84.48
2024-01-27T21:12:12.138Z,83.03
2024-01-27T21:17:13.920Z,83.56
2024-01-27T21:22:15.611Z,84.05
2024-01-27T21:27:17.393Z,82.76
2024-01-27T21:32:20.990Z,83.46
2024-01-27T21:37:24.265Z,84.72
2024-01-27T21:42:25.894Z,86.25
2024-01-27T21:47:27.544Z,86.52
2024-01-27T21:52:29.344Z,89.06
2024-01-27T21:57:31.091Z,86.78
2024-01-27T22:02:38.988Z,88.21
2024-01-27T22:07:42.503Z,88.41
2024-01-27T22:12:45.952Z,88.42
2024-01-27T22:17:47.632Z,88.06
2024-01-27T22:22:49.269Z,88.97
2024-01-27T22:27:50.961Z,89.01
2024-01-27T22:32:53.387Z,88.90
2024-01-27T22:37:56.583Z,89.38
2024-01-27T22:42:58.570Z,87.68
2024-01-27T22:48:03.419Z,88.44
2024-01-27T22:53:05.198Z,89.21
2024-01-27T22:58:06.857Z,89.65
2024-01-27T23:03:10.189Z,89.27
2024-01-27T23:08:13.494Z,87.77
2024-01-27T23:13:22.230Z,89.57
2024-01-27T23:18:24.012Z,89.29
2024-01-27T23:23:26.239Z,87.81
2024-01-27T23:28:27.908Z,88.92
2024-01-27T23:33:29.735Z,88.67
2024-01-27T23:38:31.401Z,88.84
2024-01-27T23:43:33.131Z,88.74
2024-01-27T23:48:35.203Z,88.53
2024-01-27T23:53:39.101Z,88.54
2024-01-27T23:58:40.740Z,90.20
